Terminal Aerodrome Forecast
Issued by NWS

Home | Current Version | Previous Version | Graphics & Text | Print | Product List | Glossary On
Versions: 1 2 3 4 5 6 7 8 9 10 11 12 13 14 15 16 17 18 19
000
FTUS42 KMHX 201800 AAB
TAFOAJ
TAF AMD
KOAJ 201852Z 2019/2118 00000KT P6SM VCTS SCT020 SCT040CB BKN050
     FM210100 10003KT P6SM VCSH BKN030
     FM210800 11003KT 4SM BR SCT010
     FM211300 10006KT P6SM SCT030
      AMD LTD TO CLD VIS AND WIND=

USA.gov is the U.S. government's official web portal to all federal, state and local government web resources and services.